createdAt,value
2018-04-25T00:00:36.204Z,12.10
2018-04-25T00:03:02.356Z,11.90
2018-04-25T00:05:28.514Z,12.00
2018-04-25T00:07:54.683Z,11.90
2018-04-25T00:10:20.911Z,12.00
2018-04-25T00:12:47.026Z,12.00
2018-04-25T00:15:13.103Z,11.90
2018-04-25T00:17:39.283Z,11.90
2018-04-25T00:20:06.244Z,11.80
2018-04-25T00:22:32.347Z,11.80
2018-04-25T00:24:58.440Z,11.90
2018-04-25T00:27:24.584Z,11.90
2018-04-25T00:29:50.670Z,11.90
2018-04-25T00:32:16.827Z,11.90
2018-04-25T00:34:43.795Z,11.90
2018-04-25T00:37:10.723Z,11.90
2018-04-25T00:39:36.896Z,11.90
2018-04-25T00:42:03.002Z,12.00
2018-04-25T00:44:29.434Z,12.10
2018-04-25T00:46:56.207Z,12.10
2018-04-25T00:49:23.105Z,12.20
2018-04-25T00:51:49.325Z,12.10
2018-04-25T00:54:15.436Z,12.10
2018-04-25T00:56:41.575Z,12.10
2018-04-25T00:59:07.660Z,12.10
2018-04-25T01:01:33.896Z,12.10
2018-04-25T01:04:00.119Z,12.10
2018-04-25T01:06:27.023Z,12.30
2018-04-25T01:08:53.124Z,12.20
2018-04-25T01:11:19.304Z,12.20
2018-04-25T01:13:45.398Z,12.20
2018-04-25T01:16:11.474Z,12.10
2018-04-25T01:18:37.644Z,12.10
2018-04-25T01:21:03.765Z,12.10
2018-04-25T01:23:29.915Z,12.10
2018-04-25T01:26:03.079Z,12.00
2018-04-25T01:28:29.167Z,12.00
2018-04-25T01:30:59.107Z,12.00
2018-04-25T01:33:25.416Z,11.90
2018-04-25T01:35:57.414Z,12.00
2018-04-25T01:38:26.262Z,11.90
2018-04-25T01:40:52.393Z,11.90
2018-04-25T01:43:19.468Z,11.90
2018-04-25T01:45:49.437Z,11.90
2018-04-25T01:48:27.644Z,11.90
2018-04-25T01:50:57.525Z,11.80
2018-04-25T01:53:35.957Z,11.90
2018-04-25T01:56:14.329Z,11.90
2018-04-25T01:58:52.834Z,11.90
2018-04-25T02:01:18.866Z,11.90
2018-04-25T02:03:53.128Z,11.90
2018-04-25T02:06:19.250Z,11.90
2018-04-25T02:08:45.368Z,11.80
2018-04-25T02:11:11.465Z,11.80
2018-04-25T02:13:37.579Z,11.80
2018-04-25T02:16:03.699Z,11.80
2018-04-25T02:18:33.825Z,11.80
2018-04-25T02:20:59.940Z,11.80
2018-04-25T02:23:26.072Z,11.90
2018-04-25T02:25:54.520Z,11.90
2018-04-25T02:28:21.659Z,11.90
2018-04-25T02:30:47.785Z,11.90
2018-04-25T02:33:15.094Z,11.90
2018-04-25T02:35:42.020Z,11.90
2018-04-25T02:38:08.125Z,11.90
2018-04-25T02:40:34.231Z,12.00
2018-04-25T02:43:01.117Z,12.00
2018-04-25T02:45:27.270Z,11.90
2018-04-25T02:47:53.420Z,12.00
2018-04-25T02:50:19.527Z,12.00
2018-04-25T02:52:45.635Z,12.00
2018-04-25T02:55:12.446Z,12.00
2018-04-25T02:57:38.575Z,12.00
2018-04-25T03:00:04.723Z,12.00
2018-04-25T03:02:30.969Z,12.00
2018-04-25T03:04:57.068Z,12.00
2018-04-25T03:07:23.164Z,12.00
2018-04-25T03:09:51.887Z,12.00
2018-04-25T03:12:17.995Z,12.00
2018-04-25T03:14:45.119Z,12.00
2018-04-25T03:17:11.376Z,12.10
2018-04-25T03:19:38.433Z,12.10
2018-04-25T03:22:04.572Z,12.10
2018-04-25T03:24:30.674Z,12.00
2018-04-25T03:26:56.880Z,12.00
2018-04-25T03:29:26.242Z,12.00
2018-04-25T03:31:52.327Z,12.00
2018-04-25T03:34:18.497Z,12.10
2018-04-25T03:36:45.363Z,12.10
2018-04-25T03:39:11.445Z,12.10
2018-04-25T03:41:37.548Z,12.10
2018-04-25T03:44:03.663Z,12.10
2018-04-25T03:46:30.519Z,12.10
2018-04-25T03:48:56.622Z,12.10
2018-04-25T03:51:22.746Z,12.10
2018-04-25T03:53:48.839Z,12.10
2018-04-25T03:56:15.685Z,12.10
2018-04-25T03:58:42.547Z,12.10
2018-04-25T04:01:09.470Z,12.10
2018-04-25T04:03:35.562Z,12.10
2018-04-25T04:06:01.666Z,12.10
2018-04-25T04:08:28.516Z,12.10
2018-04-25T04:10:54.612Z,12.10
2018-04-25T04:13:20.743Z,12.10
2018-04-25T04:15:46.809Z,12.10
2018-04-25T04:18:12.870Z,12.10
2018-04-25T04:20:38.962Z,12.10
2018-04-25T04:23:05.064Z,12.10
2018-04-25T04:25:31.159Z,12.10
2018-04-25T04:27:57.291Z,12.10
2018-04-25T04:30:23.387Z,12.10
2018-04-25T04:32:49.559Z,12.10
2018-04-25T04:35:15.719Z,12.10
2018-04-25T04:37:41.813Z,12.10
2018-04-25T04:40:07.891Z,12.20
2018-04-25T04:42:34.013Z,12.30
2018-04-25T04:45:00.105Z,12.30
2018-04-25T04:47:26.197Z,12.40
2018-04-25T04:49:52.350Z,12.30
2018-04-25T04:52:18.701Z,12.40
2018-04-25T04:54:44.875Z,12.40
2018-04-25T04:57:11.016Z,12.30
2018-04-25T04:59:37.140Z,12.40
2018-04-25T05:02:03.240Z,12.30
2018-04-25T05:04:29.345Z,12.40
2018-04-25T05:06:55.423Z,12.50
2018-04-25T05:09:22.596Z,12.50
2018-04-25T05:11:48.707Z,12.50
2018-04-25T05:14:14.783Z,12.50
2018-04-25T05:16:40.892Z,12.70
2018-04-25T05:19:07.080Z,12.80
2018-04-25T05:21:33.167Z,12.80
2018-04-25T05:23:59.261Z,12.90
2018-04-25T05:26:25.402Z,12.90
2018-04-25T05:28:51.559Z,13.00
2018-04-25T05:31:17.760Z,13.00
2018-04-25T05:33:43.874Z,13.00
2018-04-25T05:36:10.000Z,13.10
2018-04-25T05:38:36.348Z,13.10
2018-04-25T05:41:02.737Z,13.00
2018-04-25T05:43:28.903Z,13.10
2018-04-25T05:45:55.104Z,13.10
2018-04-25T05:48:21.246Z,12.90
2018-04-25T05:50:47.351Z,12.60
2018-04-25T05:53:13.423Z,12.50
2018-04-25T05:55:39.604Z,12.60
2018-04-25T05:58:05.721Z,12.60
2018-04-25T06:00:32.188Z,12.70
2018-04-25T06:02:58.385Z,12.80
2018-04-25T06:05:24.604Z,12.80
2018-04-25T06:07:51.440Z,12.90
2018-04-25T06:10:17.653Z,12.90
2018-04-25T06:12:43.775Z,13.00
2018-04-25T06:15:10.084Z,13.00
2018-04-25T06:17:36.947Z,13.10
2018-04-25T06:20:03.825Z,13.10
2018-04-25T06:22:29.920Z,13.10
2018-04-25T06:24:56.915Z,13.20
2018-04-25T06:27:23.028Z,13.20
2018-04-25T06:29:49.873Z,13.30
2018-04-25T06:32:16.123Z,13.20
2018-04-25T06:34:43.004Z,13.20
2018-04-25T06:37:09.110Z,13.20
2018-04-25T06:39:35.302Z,13.30
2018-04-25T06:42:01.447Z,13.40
2018-04-25T06:44:27.554Z,13.40
2018-04-25T06:46:53.673Z,13.50
2018-04-25T06:49:19.786Z,13.50
2018-04-25T06:51:45.898Z,13.60
2018-04-25T06:54:11.990Z,13.60
2018-04-25T06:56:40.496Z,13.60
2018-04-25T06:59:06.705Z,13.60
2018-04-25T07:01:32.823Z,13.60
2018-04-25T07:03:58.963Z,13.60
2018-04-25T07:06:25.100Z,13.60
2018-04-25T07:08:51.216Z,13.50
2018-04-25T07:11:17.880Z,13.50
2018-04-25T07:13:44.003Z,13.60
2018-04-25T07:16:10.163Z,13.60
2018-04-25T07:18:36.287Z,13.60
2018-04-25T07:21:02.420Z,13.60
2018-04-25T07:23:28.574Z,13.60
2018-04-25T07:25:54.662Z,13.60
2018-04-25T07:28:21.497Z,13.70
2018-04-25T07:30:47.980Z,13.70
2018-04-25T07:33:14.059Z,13.80
2018-04-25T07:35:40.173Z,13.80
2018-04-25T07:38:06.300Z,13.80
2018-04-25T07:40:32.392Z,13.80
2018-04-25T07:42:58.466Z,13.80
2018-04-25T07:45:24.613Z,13.90
2018-04-25T07:47:50.708Z,14.00
2018-04-25T07:50:17.550Z,14.00
2018-04-25T07:52:43.698Z,14.00
2018-04-25T07:55:09.806Z,14.00
2018-04-25T07:57:36.001Z,14.10
2018-04-25T08:00:02.105Z,14.10
2018-04-25T08:02:28.218Z,14.10
2018-04-25T08:04:55.209Z,14.20
2018-04-25T08:07:21.934Z,14.20
2018-04-25T08:09:48.822Z,14.40
2018-04-25T08:12:27.292Z,14.40
2018-04-25T08:15:06.604Z,15.00
2018-04-25T08:17:45.239Z,15.00
2018-04-25T08:20:23.766Z,15.30
2018-04-25T08:22:49.914Z,15.70
2018-04-25T08:25:16.014Z,15.70
2018-04-25T08:27:42.888Z,15.80
2018-04-25T08:30:09.016Z,15.80
2018-04-25T08:32:35.079Z,15.80
2018-04-25T08:35:01.279Z,15.90
2018-04-25T08:37:28.131Z,15.90
2018-04-25T08:39:54.225Z,15.80
2018-04-25T08:42:20.318Z,15.60
2018-04-25T08:44:46.419Z,15.60
2018-04-25T08:47:12.903Z,15.60
2018-04-25T08:52:07.570Z,16.90
2018-04-25T08:54:33.731Z,16.80
2018-04-25T08:57:00.540Z,17.20
2018-04-25T08:59:26.660Z,17.10
2018-04-25T09:01:52.768Z,17.10
2018-04-25T09:04:18.922Z,16.80
2018-04-25T09:06:46.178Z,17.20
2018-04-25T09:09:12.402Z,17.20
2018-04-25T09:11:38.519Z,17.70
2018-04-25T09:14:04.637Z,17.60
2018-04-25T09:16:30.786Z,18.20
2018-04-25T09:18:56.915Z,19.10
2018-04-25T09:21:23.091Z,19.30
2018-04-25T09:23:49.230Z,19.40
2018-04-25T09:26:15.370Z,20.00
2018-04-25T09:28:41.439Z,20.10
2018-04-25T09:31:08.291Z,20.40
2018-04-25T09:33:35.420Z,21.20
2018-04-25T09:36:01.547Z,21.20
2018-04-25T09:38:27.618Z,20.30
2018-04-25T09:40:53.763Z,20.30
2018-04-25T09:43:20.609Z,21.00
2018-04-25T09:45:46.702Z,21.00
2018-04-25T09:48:12.889Z,21.20
2018-04-25T09:50:38.986Z,20.30
2018-04-25T09:53:05.110Z,20.60
2018-04-25T09:55:31.242Z,20.50
2018-04-25T09:57:57.493Z,21.60
2018-04-25T10:00:29.557Z,22.00
2018-04-25T10:02:55.684Z,21.30
2018-04-25T10:07:50.154Z,20.80
2018-04-25T10:10:16.250Z,19.50
2018-04-25T10:12:43.128Z,19.30
2018-04-25T10:15:09.282Z,19.30
2018-04-25T10:17:36.154Z,19.10
2018-04-25T10:20:02.230Z,19.10
2018-04-25T10:22:29.065Z,20.30
2018-04-25T10:27:23.794Z,20.20
2018-04-25T10:29:49.855Z,21.20
2018-04-25T10:32:16.334Z,20.50
2018-04-25T10:34:43.528Z,20.00
2018-04-25T10:37:09.625Z,19.70
2018-04-25T10:39:35.733Z,19.90
2018-04-25T10:42:02.582Z,19.70
2018-04-25T10:44:29.471Z,19.40
2018-04-25T10:46:55.630Z,19.40
2018-04-25T10:49:21.734Z,19.90
2018-04-25T10:51:48.563Z,19.50
2018-04-25T10:54:14.688Z,19.50
2018-04-25T10:56:41.703Z,19.40
2018-04-25T10:59:07.789Z,19.30
2018-04-25T11:01:33.930Z,19.40
2018-04-25T11:04:00.015Z,19.10
2018-04-25T11:06:26.123Z,18.70
2018-04-25T11:08:53.048Z,16.90
2018-04-25T11:11:19.170Z,16.90
2018-04-25T11:13:45.234Z,16.60
2018-04-25T11:16:11.378Z,15.70
2018-04-25T11:18:37.570Z,15.20
2018-04-25T11:21:03.687Z,14.80
2018-04-25T11:23:29.820Z,14.30
2018-04-25T11:25:56.018Z,14.10
2018-04-25T11:28:22.094Z,14.00
2018-04-25T11:30:48.955Z,13.50
2018-04-25T11:33:15.861Z,13.50
2018-04-25T11:35:41.962Z,13.50
2018-04-25T11:38:08.063Z,13.60
2018-04-25T11:40:34.895Z,13.80
2018-04-25T11:43:01.022Z,13.80
2018-04-25T11:45:27.178Z,14.20
2018-04-25T11:47:53.316Z,14.50
2018-04-25T11:50:19.406Z,14.80
2018-04-25T11:52:45.549Z,15.00
2018-04-25T11:55:11.656Z,15.30
2018-04-25T11:57:38.470Z,16.20
2018-04-25T12:00:04.587Z,16.20
2018-04-25T12:02:30.675Z,16.70
2018-04-25T12:04:56.818Z,17.90
2018-04-25T12:07:22.918Z,18.40
2018-04-25T12:09:49.047Z,18.20
2018-04-25T12:12:15.218Z,18.30
2018-04-25T12:14:41.282Z,18.50
2018-04-25T12:19:35.219Z,19.20
2018-04-25T12:22:01.344Z,19.40
2018-04-25T12:29:23.194Z,19.50
2018-04-25T12:31:49.270Z,19.80
2018-04-25T12:34:16.184Z,20.20
2018-04-25T12:36:42.298Z,20.10
2018-04-25T12:39:08.412Z,20.60
2018-04-25T12:41:35.298Z,19.80
2018-04-25T12:44:02.235Z,19.00
2018-04-25T12:46:28.480Z,18.90
2018-04-25T12:48:54.549Z,18.40
2018-04-25T12:51:20.698Z,18.00
2018-04-25T12:53:46.775Z,18.10
2018-04-25T12:56:13.642Z,17.90
2018-04-25T12:58:39.761Z,17.80
2018-04-25T13:01:06.598Z,17.40
2018-04-25T13:03:32.670Z,17.40
2018-04-25T13:05:58.878Z,17.40
2018-04-25T13:08:24.990Z,18.10
2018-04-25T13:10:51.122Z,19.20
2018-04-25T13:15:45.151Z,20.10
2018-04-25T13:18:11.853Z,20.80
2018-04-25T13:20:37.969Z,20.70
2018-04-25T13:23:04.037Z,20.30
2018-04-25T13:25:30.110Z,19.90
2018-04-25T13:27:56.234Z,19.50
2018-04-25T13:30:22.339Z,19.20
2018-04-25T13:32:48.398Z,19.60
2018-04-25T13:35:14.486Z,19.90
2018-04-25T13:37:40.570Z,19.60
2018-04-25T13:40:06.647Z,19.10
2018-04-25T13:42:32.750Z,19.20
2018-04-25T13:44:58.817Z,20.00
2018-04-25T13:47:24.949Z,19.80
2018-04-25T13:49:51.053Z,19.60
2018-04-25T13:52:17.166Z,19.90
2018-04-25T13:54:43.231Z,19.60
2018-04-25T13:57:09.353Z,19.70
2018-04-25T13:59:35.483Z,20.20
2018-04-25T14:02:01.566Z,20.00
2018-04-25T14:04:27.710Z,19.10
2018-04-25T14:06:53.845Z,18.70
2018-04-25T14:09:20.002Z,18.90
2018-04-25T14:11:46.158Z,18.80
2018-04-25T14:14:12.973Z,18.80
2018-04-25T14:16:39.084Z,18.80
2018-04-25T14:19:05.185Z,19.30
2018-04-25T14:21:31.997Z,19.10
2018-04-25T14:23:58.079Z,19.10
2018-04-25T14:26:24.945Z,18.20
2018-04-25T14:28:51.771Z,17.80
2018-04-25T14:31:17.859Z,17.70
2018-04-25T14:33:43.993Z,17.80
2018-04-25T14:36:10.066Z,18.00
2018-04-25T14:38:51.114Z,18.30
2018-04-25T14:41:17.222Z,17.80
2018-04-25T14:43:43.315Z,17.90
2018-04-25T14:46:09.440Z,18.30
2018-04-25T14:48:35.519Z,18.20
2018-04-25T14:51:01.623Z,17.80
2018-04-25T14:53:27.770Z,17.30
2018-04-25T14:55:53.842Z,17.00
2018-04-25T14:58:19.927Z,17.70
2018-04-25T15:00:46.090Z,18.10
2018-04-25T15:03:12.157Z,17.80
2018-04-25T15:05:38.223Z,17.00
2018-04-25T15:08:04.347Z,16.50
2018-04-25T15:10:31.163Z,16.70
2018-04-25T15:12:57.266Z,16.60
2018-04-25T15:15:23.394Z,16.90
2018-04-25T15:17:49.477Z,16.80
2018-04-25T15:20:15.557Z,16.60
2018-04-25T15:22:42.418Z,16.20
2018-04-25T15:25:08.520Z,16.20
2018-04-25T15:27:34.592Z,16.20
2018-04-25T15:30:00.733Z,16.40
2018-04-25T15:32:26.848Z,16.50
2018-04-25T15:34:52.961Z,16.60
2018-04-25T15:37:19.071Z,16.40
2018-04-25T15:39:45.162Z,16.40
2018-04-25T15:42:11.975Z,15.70
2018-04-25T15:44:38.074Z,15.70
2018-04-25T15:47:04.166Z,15.90
2018-04-25T15:49:30.243Z,15.70
2018-04-25T15:51:57.151Z,15.40
2018-04-25T15:54:23.230Z,15.40
2018-04-25T15:56:50.055Z,15.10
2018-04-25T15:59:16.182Z,15.00
2018-04-25T16:01:42.361Z,15.00
2018-04-25T16:04:08.447Z,15.00
2018-04-25T16:06:34.555Z,14.90
2018-04-25T16:09:00.648Z,14.90
2018-04-25T16:11:26.731Z,15.10
2018-04-25T16:13:52.885Z,15.10
2018-04-25T16:16:18.954Z,15.00
2018-04-25T16:18:45.050Z,14.90
2018-04-25T16:21:11.189Z,14.90
2018-04-25T16:23:37.258Z,14.90
2018-04-25T16:26:03.321Z,14.90
2018-04-25T16:28:29.487Z,15.00
2018-04-25T16:30:55.574Z,14.90
2018-04-25T16:33:21.654Z,14.80
2018-04-25T16:35:48.502Z,14.80
2018-04-25T16:38:15.303Z,14.80
2018-04-25T16:40:41.387Z,14.70
2018-04-25T16:43:07.571Z,14.80
2018-04-25T16:45:33.710Z,14.70
2018-04-25T16:47:59.828Z,14.50
2018-04-25T16:50:26.807Z,14.30
2018-04-25T16:52:52.946Z,14.10
2018-04-25T16:55:19.057Z,14.00
2018-04-25T16:57:49.055Z,14.10
2018-04-25T17:00:15.122Z,14.10
2018-04-25T17:02:41.989Z,14.20
2018-04-25T17:05:08.082Z,14.20
2018-04-25T17:07:34.153Z,14.20
2018-04-25T17:10:01.082Z,14.00
2018-04-25T17:12:27.145Z,14.00
2018-04-25T17:14:54.889Z,13.90
2018-04-25T17:17:20.999Z,13.80
2018-04-25T17:19:47.093Z,13.80
2018-04-25T17:22:13.912Z,13.70
2018-04-25T17:24:40.028Z,13.70
2018-04-25T17:27:06.102Z,13.70
2018-04-25T17:29:32.426Z,13.60
2018-04-25T17:31:58.514Z,13.60
2018-04-25T17:34:24.636Z,13.50
2018-04-25T17:36:51.625Z,13.50
2018-04-25T17:39:17.703Z,13.50
2018-04-25T17:41:43.802Z,13.40
2018-04-25T17:44:09.961Z,13.30
2018-04-25T17:46:36.063Z,13.30
2018-04-25T17:49:02.297Z,13.30
2018-04-25T17:51:29.138Z,13.30
2018-04-25T17:53:56.015Z,13.20
2018-04-25T17:56:22.220Z,13.20
2018-04-25T17:58:48.406Z,13.40
2018-04-25T18:01:14.558Z,13.20
2018-04-25T18:03:40.883Z,13.10
2018-04-25T18:06:07.067Z,13.10
2018-04-25T18:08:33.146Z,13.00
2018-04-25T18:10:59.317Z,12.90
2018-04-25T18:13:25.458Z,12.90
2018-04-25T18:15:58.754Z,12.80
2018-04-25T18:18:24.980Z,12.70
2018-04-25T18:20:52.148Z,12.70
2018-04-25T18:23:18.301Z,12.60
2018-04-25T18:25:44.435Z,12.70
2018-04-25T18:28:11.622Z,12.60
2018-04-25T18:30:37.986Z,12.50
2018-04-25T18:33:04.204Z,12.40
2018-04-25T18:35:30.312Z,12.40
2018-04-25T18:37:56.383Z,12.40
2018-04-25T18:40:22.504Z,12.40
2018-04-25T18:42:48.682Z,12.40
2018-04-25T18:45:14.777Z,12.30
2018-04-25T18:47:40.899Z,12.30
2018-04-25T18:50:06.973Z,12.20
2018-04-25T18:52:33.103Z,12.10
2018-04-25T18:54:59.235Z,12.00
2018-04-25T18:57:25.474Z,11.90
2018-04-25T18:59:51.570Z,12.00
2018-04-25T19:02:18.452Z,11.90
2018-04-25T19:04:44.626Z,11.90
2018-04-25T19:07:10.740Z,11.90
2018-04-25T19:09:36.819Z,11.90
2018-04-25T19:12:02.912Z,12.00
2018-04-25T19:14:29.013Z,12.00
2018-04-25T19:16:55.825Z,11.90
2018-04-25T19:19:22.006Z,11.80
2018-04-25T19:21:48.859Z,11.80
2018-04-25T19:24:15.753Z,11.90
2018-04-25T19:26:41.978Z,11.80
2018-04-25T20:15:58.648Z,11.70
2018-04-25T20:18:24.826Z,10.80
2018-04-25T20:20:50.974Z,10.70
2018-04-25T20:23:17.062Z,10.70
2018-04-25T20:25:43.117Z,10.60
2018-04-25T20:28:09.243Z,10.60
2018-04-25T20:30:35.426Z,10.50
2018-04-25T20:33:01.628Z,10.40
2018-04-25T20:35:27.724Z,10.30
2018-04-25T20:37:54.612Z,10.20
2018-04-25T20:40:20.705Z,10.10
2018-04-25T20:42:46.804Z,10.10
2018-04-25T20:45:12.879Z,10.00
2018-04-25T20:47:39.035Z,10.00
2018-04-25T20:50:05.845Z,10.00
2018-04-25T20:52:31.978Z,10.00
2018-04-25T20:54:58.310Z,10.10
2018-04-25T20:57:24.651Z,10.30
2018-04-25T20:59:50.826Z,10.30
2018-04-25T21:02:16.928Z,10.30
2018-04-25T21:04:43.053Z,10.20
2018-04-25T21:07:09.181Z,10.20
2018-04-25T21:09:35.319Z,10.20
2018-04-25T21:12:01.446Z,10.30
2018-04-25T21:14:28.293Z,10.10
2018-04-25T21:16:54.399Z,10.10
2018-04-25T21:19:20.475Z,10.20
2018-04-25T21:21:47.411Z,10.40
2018-04-25T21:24:13.507Z,10.30
2018-04-25T21:26:39.598Z,10.30
2018-04-25T21:29:05.734Z,10.30
2018-04-25T21:31:31.846Z,10.40
2018-04-25T21:33:57.943Z,10.40
2018-04-25T21:36:24.131Z,10.50
2018-04-25T21:38:50.299Z,10.40
2018-04-25T21:41:17.291Z,10.40
2018-04-25T21:43:43.461Z,10.40
2018-04-25T21:46:09.567Z,10.30
2018-04-25T21:48:35.650Z,10.20
2018-04-25T21:51:01.812Z,10.20
2018-04-25T21:53:28.702Z,10.20
2018-04-25T21:55:54.771Z,10.20
2018-04-25T21:58:20.887Z,10.20
2018-04-25T22:00:46.976Z,10.10
2018-04-25T22:03:13.803Z,9.90
2018-04-25T22:05:39.915Z,9.90
2018-04-25T22:08:06.032Z,9.90
2018-04-25T22:10:32.112Z,9.80
2018-04-25T22:12:58.272Z,9.70
2018-04-25T22:15:24.366Z,9.60
2018-04-25T22:17:50.456Z,9.60
2018-04-25T22:20:16.571Z,9.60
2018-04-25T22:22:42.661Z,9.60
2018-04-25T22:25:08.726Z,9.50
2018-04-25T22:27:34.837Z,9.50
2018-04-25T22:30:00.911Z,9.50
2018-04-25T22:32:26.999Z,9.50
2018-04-25T22:34:53.116Z,9.50
2018-04-25T22:37:19.932Z,9.50
2018-04-25T22:39:46.039Z,9.40
2018-04-25T22:42:12.129Z,9.50
2018-04-25T22:44:38.201Z,9.40
2018-04-25T22:47:04.989Z,9.50
2018-04-25T22:49:31.086Z,9.40
2018-04-25T22:51:57.903Z,9.60
2018-04-25T22:54:23.970Z,9.50
2018-04-25T22:56:50.798Z,9.60
2018-04-25T22:59:17.099Z,9.60
2018-04-25T23:01:43.971Z,9.70
2018-04-25T23:04:10.087Z,9.60
2018-04-25T23:06:36.211Z,9.70
2018-04-25T23:09:03.102Z,9.70
2018-04-25T23:11:29.194Z,9.60
2018-04-25T23:13:56.082Z,9.60
2018-04-25T23:16:22.254Z,9.50
2018-04-25T23:18:48.430Z,9.50
2018-04-25T23:21:15.337Z,9.30
2018-04-25T23:23:41.456Z,9.30
2018-04-25T23:26:07.532Z,9.30
2018-04-25T23:28:33.734Z,9.30
2018-04-25T23:30:59.927Z,9.40
2018-04-25T23:33:26.821Z,9.40
2018-04-25T23:35:52.984Z,9.40
2018-04-25T23:38:19.078Z,9.60
2018-04-25T23:40:45.969Z,9.70
2018-04-25T23:43:12.095Z,9.60
2018-04-25T23:45:38.232Z,9.60
2018-04-25T23:48:04.408Z,9.70
2018-04-25T23:50:30.536Z,9.70
2018-04-25T23:52:56.642Z,9.60
2018-04-25T23:55:22.903Z,9.60
2018-04-25T23:57:49.078Z,9.60
